Time;durP1;ratioP1;P1;durP2;ratioP2;P2;SDS_P1;SDS_P2;PMS_P1;PMS_P2;Temp;Humidity;BMP_temperature;BMP_pressure;BME280_temperature;BME280_humidity;BME280_pressure;Samples;Min_cycle;Max_cycle;Signal;HPM_P1;HPM_P2
2022/01/14 00:01:19;;;;;;;29.38;12.35;;;;;;;;;;6204738;23;20020;-94
2022/01/14 00:03:46;;;;;;;33.25;12.77;;;;;;;;;;6206529;23;20048;-93
2022/01/14 00:06:28;;;;;;;29.77;12.98;;;;;;;;;;6206171;23;20020;-93
2022/01/14 00:09:02;;;;;;;29.65;12.48;;;;;;;;;;6205875;23;20020;-93
2022/01/14 00:11:30;;;;;;;34.35;12.45;;;;;;;;;;6205315;23;20024;-93
2022/01/14 00:16:31;;;;;;;27.75;12.55;;;;;;;;;;6230067;22;20025;-93
2022/01/14 00:18:59;;;;;;;24.17;12.45;;;;;;;;;;6205508;23;20051;-93
2022/01/14 00:21:27;;;;;;;32.72;13.10;;;;;;;;;;6205154;23;20028;-93
2022/01/14 00:24:05;;;;;;;30.08;13.52;;;;;;;;;;6203980;23;20065;-93
2022/01/14 00:32:18;;;;;;;26.60;13.02;;;;;;;;;;6232795;22;20032;-93
2022/01/14 00:34:48;;;;;;;29.45;13.13;;;;;;;;;;6232108;23;20078;-93
2022/01/14 00:37:17;;;;;;;26.45;12.73;;;;;;;;;;6206223;23;20044;-94
2022/01/14 00:39:46;;;;;;;33.35;13.20;;;;;;;;;;6207406;23;20024;-93
2022/01/14 00:42:23;;;;;;;20.80;9.85;;;;;;;;;;6206623;22;20051;-93
2022/01/14 00:44:51;;;;;;;25.25;11.05;;;;;;;;;;6207535;23;20009;-93
2022/01/14 00:47:18;;;;;;;24.70;11.30;;;;;;;;;;6207412;23;20024;-94
2022/01/14 00:49:44;;;;;;;21.83;11.02;;;;;;;;;;6205651;23;20015;-93
2022/01/14 00:52:14;;;;;;;34.15;12.50;;;;;;;;;;6208192;23;20035;-93
2022/01/14 00:54:41;;;;;;;22.85;10.93;;;;;;;;;;6212156;23;20023;-93
2022/01/14 00:59:35;;;;;;;23.90;12.15;;;;;;;;;;6237263;23;20017;-93
2022/01/14 01:02:03;;;;;;;27.60;11.73;;;;;;;;;;6185399;23;20019;-94
2022/01/14 01:04:35;;;;;;;30.05;12.32;;;;;;;;;;6206723;23;20031;-93
2022/01/14 01:07:04;;;;;;;34.15;12.20;;;;;;;;;;6212208;23;20013;-93
2022/01/14 01:09:31;;;;;;;23.75;11.30;;;;;;;;;;6212299;22;20015;-93
2022/01/14 01:12:25;;;;;;;33.83;10.43;;;;;;;;;;6212559;22;20073;-93
2022/01/14 01:15:04;;;;;;;20.73;10.75;;;;;;;;;;6206920;22;20024;-93
2022/01/14 01:17:31;;;;;;;26.20;10.43;;;;;;;;;;6206911;23;20020;-94
2022/01/14 01:20:21;;;;;;;27.55;10.43;;;;;;;;;;6206148;22;20491;-93
2022/01/14 01:22:49;;;;;;;20.02;9.27;;;;;;;;;;6204745;23;20035;-93
2022/01/14 01:25:19;;;;;;;28.30;11.63;;;;;;;;;;6203837;23;20046;-93
2022/01/14 01:27:56;;;;;;;30.10;10.88;;;;;;;;;;6206085;23;20021;-93
2022/01/14 01:33:04;;;;;;;28.23;10.85;;;;;;;;;;6230347;23;19916;-93
2022/01/14 01:35:49;;;;;;;28.20;10.02;;;;;;;;;;6205768;23;20024;-93
2022/01/14 01:38:23;;;;;;;24.30;10.30;;;;;;;;;;6205949;23;20025;-93
2022/01/14 01:40:49;;;;;;;23.02;10.88;;;;;;;;;;6205644;23;20032;-93
2022/01/14 01:43:43;;;;;;;28.05;11.02;;;;;;;;;;6231810;23;20031;-93
2022/01/14 01:46:11;;;;;;;26.35;11.40;;;;;;;;;;6231134;23;20035;-93
2022/01/14 01:48:53;;;;;;;28.27;10.57;;;;;;;;;;6207907;23;20021;-93
2022/01/14 01:51:26;;;;;;;27.95;12.70;;;;;;;;;;6206283;23;20031;-93
2022/01/14 01:53:55;;;;;;;25.47;10.50;;;;;;;;;;6208441;23;20024;-93
2022/01/14 01:56:29;;;;;;;24.20;10.70;;;;;;;;;;6212054;23;20444;-93
2022/01/14 01:58:56;;;;;;;24.92;11.23;;;;;;;;;;6214390;22;20023;-92
2022/01/14 02:01:26;;;;;;;23.52;10.68;;;;;;;;;;6235788;23;20021;-92
2022/01/14 02:03:54;;;;;;;30.90;10.02;;;;;;;;;;6211532;22;20009;-92
2022/01/14 02:06:21;;;;;;;25.67;12.82;;;;;;;;;;6212982;22;20008;-93
2022/01/14 02:08:49;;;;;;;23.73;11.18;;;;;;;;;;6209608;23;20111;-92
2022/01/14 02:11:16;;;;;;;29.13;11.30;;;;;;;;;;6210713;23;20009;-94
2022/01/14 02:13:44;;;;;;;28.35;10.93;;;;;;;;;;6208814;22;20046;-95
2022/01/14 02:16:30;;;;;;;22.98;10.18;;;;;;;;;;6205740;23;20217;-94
2022/01/14 02:19:14;;;;;;;25.70;10.90;;;;;;;;;;6205480;23;20021;-94
2022/01/14 02:25:04;;;;;;;26.27;11.00;;;;;;;;;;6231545;23;20038;-92
2022/01/14 02:27:31;;;;;;;24.70;10.30;;;;;;;;;;6205057;23;20467;-93
2022/01/14 02:30:06;;;;;;;23.98;12.48;;;;;;;;;;6234416;23;20492;-92
2022/01/14 02:32:33;;;;;;;25.40;11.25;;;;;;;;;;6206635;23;20076;-93
2022/01/14 02:35:00;;;;;;;26.90;10.95;;;;;;;;;;6209453;23;20050;-94
2022/01/14 02:37:45;;;;;;;23.10;10.38;;;;;;;;;;6210487;22;20024;-93
2022/01/14 02:40:11;;;;;;;26.85;10.75;;;;;;;;;;6206590;23;20031;-93
2022/01/14 02:42:38;;;;;;;26.90;11.15;;;;;;;;;;6204772;23;20038;-92
2022/01/14 02:45:08;;;;;;;22.77;10.93;;;;;;;;;;6204446;23;20065;-93
2022/01/14 02:47:35;;;;;;;27.63;10.88;;;;;;;;;;6207108;23;20029;-93
2022/01/14 02:50:07;;;;;;;29.05;10.38;;;;;;;;;;6205808;23;20048;-93
2022/01/14 02:52:55;;;;;;;26.30;11.10;;;;;;;;;;6204107;23;20039;-93
2022/01/14 02:55:32;;;;;;;30.93;10.83;;;;;;;;;;6206621;23;20031;-93
2022/01/14 02:58:06;;;;;;;25.58;10.98;;;;;;;;;;6204029;23;20028;-93
2022/01/14 03:00:33;;;;;;;23.83;10.77;;;;;;;;;;6224526;23;20016;-93
2022/01/14 03:03:00;;;;;;;30.27;11.82;;;;;;;;;;6235877;23;20008;-92
2022/01/14 03:05:33;;;;;;;23.45;10.32;;;;;;;;;;6235956;22;20012;-92
2022/01/14 03:08:01;;;;;;;28.90;11.35;;;;;;;;;;6235796;23;20074;-92
2022/01/14 03:10:28;;;;;;;28.15;11.45;;;;;;;;;;6234764;23;20024;-93
2022/01/14 03:12:56;;;;;;;23.08;10.32;;;;;;;;;;6227716;23;20020;-93
2022/01/14 03:15:22;;;;;;;21.17;10.63;;;;;;;;;;6227137;23;20039;-93
2022/01/14 03:17:49;;;;;;;26.20;11.40;;;;;;;;;;6229477;23;20024;-93
2022/01/14 03:20:40;;;;;;;32.67;10.95;;;;;;;;;;6228945;23;20028;-93
2022/01/14 03:23:08;;;;;;;26.70;11.15;;;;;;;;;;6227783;23;20024;-94
2022/01/14 03:25:53;;;;;;;26.27;12.38;;;;;;;;;;6230838;23;20030;-93
2022/01/14 03:28:37;;;;;;;29.15;11.85;;;;;;;;;;6227869;23;20020;-94
2022/01/14 03:31:05;;;;;;;29.58;11.05;;;;;;;;;;6228815;23;20070;-94
2022/01/14 03:33:31;;;;;;;24.02;11.50;;;;;;;;;;6229067;23;20031;-93
2022/01/14 03:36:07;;;;;;;23.52;11.52;;;;;;;;;;6228612;23;20069;-93
2022/01/14 03:38:35;;;;;;;31.80;12.65;;;;;;;;;;6232723;23;20024;-93
2022/01/14 03:41:07;;;;;;;26.33;12.73;;;;;;;;;;6230465;22;20059;-93
2022/01/14 03:43:36;;;;;;;25.00;12.10;;;;;;;;;;6230076;23;20122;-93
2022/01/14 03:46:03;;;;;;;25.85;12.73;;;;;;;;;;6229409;23;20080;-94
2022/01/14 03:48:30;;;;;;;33.33;13.15;;;;;;;;;;6230011;23;20024;-93
2022/01/14 03:50:57;;;;;;;26.52;13.10;;;;;;;;;;6228119;23;20020;-93
2022/01/14 03:53:26;;;;;;;32.38;13.15;;;;;;;;;;6229066;23;20044;-93
2022/01/14 03:55:53;;;;;;;28.95;12.07;;;;;;;;;;6229692;23;20025;-93
2022/01/14 03:58:39;;;;;;;29.70;13.23;;;;;;;;;;6229067;23;20055;-94
2022/01/14 04:01:07;;;;;;;24.58;12.85;;;;;;;;;;6204098;23;20028;-93
2022/01/14 04:03:34;;;;;;;37.17;14.35;;;;;;;;;;6204041;23;20035;-93
2022/01/14 04:06:04;;;;;;;23.73;12.90;;;;;;;;;;6205788;23;20020;-93
2022/01/14 04:08:32;;;;;;;30.20;12.70;;;;;;;;;;6204950;23;20024;-93
2022/01/14 04:11:03;;;;;;;38.80;13.50;;;;;;;;;;6182015;23;20059;-93
2022/01/14 04:16:06;;;;;;;33.22;14.23;;;;;;;;;;6233807;22;20021;-93
2022/01/14 04:18:33;;;;;;;31.23;14.02;;;;;;;;;;6206494;22;20032;-93
2022/01/14 04:21:02;;;;;;;30.50;13.13;;;;;;;;;;6207330;23;20048;-93
2022/01/14 04:23:35;;;;;;;31.87;13.97;;;;;;;;;;6209868;22;20021;-93
2022/01/14 04:26:02;;;;;;;31.15;12.63;;;;;;;;;;6210689;22;20465;-93
2022/01/14 04:28:34;;;;;;;31.60;12.13;;;;;;;;;;6206114;22;20051;-93
2022/01/14 04:31:15;;;;;;;34.25;13.13;;;;;;;;;;6203317;22;20031;-93
2022/01/14 04:33:43;;;;;;;31.52;11.90;;;;;;;;;;6208150;23;20022;-94
2022/01/14 04:36:10;;;;;;;31.17;14.43;;;;;;;;;;6204440;23;20080;-94
2022/01/14 04:38:43;;;;;;;34.85;14.23;;;;;;;;;;6204463;23;20028;-94
2022/01/14 04:41:12;;;;;;;35.58;13.95;;;;;;;;;;6204675;23;20024;-93
2022/01/14 04:43:39;;;;;;;29.70;13.00;;;;;;;;;;6178931;23;20029;-93
2022/01/14 04:48:35;;;;;;;27.85;12.98;;;;;;;;;;6230851;22;20024;-94
2022/01/14 04:51:05;;;;;;;30.27;12.40;;;;;;;;;;6229608;23;20050;-94
2022/01/14 04:53:32;;;;;;;30.40;12.48;;;;;;;;;;6203469;23;20050;-93
2022/01/14 04:59:23;;;;;;;24.48;11.02;;;;;;;;;;6229195;23;20018;-94
2022/01/14 05:01:49;;;;;;;35.78;12.57;;;;;;;;;;6205354;23;20024;-94
2022/01/14 05:04:27;;;;;;;30.65;12.60;;;;;;;;;;6205827;22;20020;-94
2022/01/14 05:07:02;;;;;;;36.55;13.50;;;;;;;;;;6237288;22;20020;-93
2022/01/14 05:09:44;;;;;;;29.65;13.07;;;;;;;;;;6236817;22;20020;-93
2022/01/14 05:12:11;;;;;;;31.13;11.27;;;;;;;;;;6210706;22;20062;-93
2022/01/14 05:14:38;;;;;;;24.88;12.43;;;;;;;;;;6211272;23;20008;-93
2022/01/14 05:17:09;;;;;;;31.13;12.88;;;;;;;;;;6207367;23;20039;-93
2022/01/14 05:19:37;;;;;;;44.63;13.98;;;;;;;;;;6205859;23;20033;-94
2022/01/14 05:22:05;;;;;;;30.35;12.05;;;;;;;;;;6209594;22;20020;-93
2022/01/14 05:24:33;;;;;;;33.58;13.15;;;;;;;;;;6206985;23;20031;-93
2022/01/14 05:26:59;;;;;;;26.58;10.75;;;;;;;;;;6208132;23;20368;-93
2022/01/14 05:29:27;;;;;;;28.02;12.32;;;;;;;;;;6208429;22;20021;-93
2022/01/14 05:32:17;;;;;;;32.83;12.43;;;;;;;;;;6208165;23;20411;-93
2022/01/14 05:34:48;;;;;;;21.88;12.35;;;;;;;;;;6209463;23;20067;-93
2022/01/14 05:37:20;;;;;;;31.85;12.23;;;;;;;;;;6211573;23;20027;-93
2022/01/14 05:40:15;;;;;;;28.55;12.48;;;;;;;;;;6210382;22;20050;-93
2022/01/14 05:42:42;;;;;;;27.08;12.60;;;;;;;;;;6209351;23;20013;-94
2022/01/14 05:45:13;;;;;;;32.72;12.85;;;;;;;;;;6211014;23;20020;-92
2022/01/14 05:47:46;;;;;;;26.17;11.88;;;;;;;;;;6209917;23;20020;-93
2022/01/14 05:50:15;;;;;;;28.15;12.60;;;;;;;;;;6208234;23;20021;-93
2022/01/14 05:52:45;;;;;;;36.10;14.27;;;;;;;;;;6208030;23;20034;-93
2022/01/14 05:55:12;;;;;;;34.67;13.15;;;;;;;;;;6207099;23;20009;-93
2022/01/14 05:57:42;;;;;;;32.47;12.40;;;;;;;;;;6232480;23;20020;-92
2022/01/14 06:00:14;;;;;;;29.27;13.05;;;;;;;;;;6205118;22;20058;-93
2022/01/14 06:02:42;;;;;;;27.50;14.07;;;;;;;;;;6209047;22;20024;-93
2022/01/14 06:05:14;;;;;;;23.63;13.52;;;;;;;;;;6235547;22;20055;-94
2022/01/14 06:07:41;;;;;;;35.28;14.07;;;;;;;;;;6209067;22;20008;-93
2022/01/14 06:10:10;;;;;;;26.10;13.43;;;;;;;;;;6205580;22;20051;-93
2022/01/14 06:12:38;;;;;;;30.95;14.48;;;;;;;;;;6206616;22;20087;-94
2022/01/14 06:15:06;;;;;;;27.80;14.50;;;;;;;;;;6204347;22;20021;-94
2022/01/14 06:17:33;;;;;;;37.88;14.35;;;;;;;;;;6200415;23;20021;-93
2022/01/14 06:20:16;;;;;;;25.27;13.88;;;;;;;;;;6201632;23;20020;-94
2022/01/14 06:22:44;;;;;;;99.53;19.50;;;;;;;;;;6202192;23;20046;-93
2022/01/14 06:25:12;;;;;;;53.72;18.05;;;;;;;;;;6202556;23;20020;-93
2022/01/14 06:28:05;;;;;;;41.35;17.45;;;;;;;;;;6204749;23;20021;-92
2022/01/14 06:30:40;;;;;;;33.03;16.60;;;;;;;;;;6203924;23;20020;-95
2022/01/14 06:33:08;;;;;;;32.35;15.35;;;;;;;;;;6201240;22;20025;-95
2022/01/14 06:35:46;;;;;;;38.58;16.17;;;;;;;;;;6205157;22;20024;-94
2022/01/14 06:38:17;;;;;;;31.48;15.82;;;;;;;;;;6205018;23;20040;-93
2022/01/14 06:40:59;;;;;;;32.40;16.85;;;;;;;;;;6207936;22;20028;-93
2022/01/14 06:43:29;;;;;;;30.20;16.45;;;;;;;;;;6206306;22;20021;-93
2022/01/14 06:49:16;;;;;;;23.98;14.93;;;;;;;;;;6233164;22;20021;-94
2022/01/14 06:51:43;;;;;;;32.45;15.38;;;;;;;;;;6202010;23;20035;-95
2022/01/14 06:54:13;;;;;;;36.97;16.65;;;;;;;;;;6229380;23;20021;-94
2022/01/14 06:56:43;;;;;;;34.53;17.40;;;;;;;;;;6202637;23;20038;-93
2022/01/14 06:59:11;;;;;;;33.80;16.75;;;;;;;;;;6182069;22;20077;-94
2022/01/14 07:01:38;;;;;;;33.83;17.02;;;;;;;;;;6231497;22;20024;-94
2022/01/14 07:04:06;;;;;;;27.92;16.10;;;;;;;;;;6233538;23;20076;-92
2022/01/14 07:06:45;;;;;;;39.20;17.35;;;;;;;;;;6228602;23;20020;-93
2022/01/14 07:09:15;;;;;;;38.67;17.00;;;;;;;;;;6202432;23;20024;-93
2022/01/14 07:11:47;;;;;;;30.83;15.63;;;;;;;;;;6228935;23;20020;-93
2022/01/14 07:14:15;;;;;;;35.78;15.15;;;;;;;;;;6226454;22;20016;-93
2022/01/14 07:16:42;;;;;;;43.47;15.15;;;;;;;;;;6205120;23;20008;-93
2022/01/14 07:19:08;;;;;;;42.20;15.45;;;;;;;;;;6207322;23;20014;-94
2022/01/14 07:21:53;;;;;;;31.33;15.35;;;;;;;;;;6205718;23;20028;-93
2022/01/14 07:24:19;;;;;;;28.80;14.45;;;;;;;;;;6201195;23;20028;-93
2022/01/14 07:26:50;;;;;;;35.00;14.65;;;;;;;;;;6200132;23;20045;-94
2022/01/14 07:29:18;;;;;;;28.10;13.10;;;;;;;;;;6202214;23;20081;-94
2022/01/14 07:31:45;;;;;;;36.95;14.02;;;;;;;;;;6202111;23;20032;-94
2022/01/14 07:36:59;;;;;;;40.53;14.75;;;;;;;;;;6230597;22;20053;-93
2022/01/14 07:39:29;;;;;;;31.92;14.63;;;;;;;;;;6199873;23;20471;-93
2022/01/14 07:41:56;;;;;;;40.58;14.73;;;;;;;;;;6197685;23;20337;-93
2022/01/14 07:44:26;;;;;;;30.95;14.65;;;;;;;;;;6205867;23;20021;-93
2022/01/14 07:46:54;;;;;;;29.88;14.35;;;;;;;;;;6208397;23;20034;-94
2022/01/14 07:49:24;;;;;;;34.75;14.23;;;;;;;;;;6210108;23;20009;-94
2022/01/14 07:52:04;;;;;;;44.08;14.48;;;;;;;;;;6211027;22;20025;-94
2022/01/14 07:54:32;;;;;;;33.60;14.48;;;;;;;;;;6208237;23;20072;-94
2022/01/14 07:57:00;;;;;;;28.70;13.80;;;;;;;;;;6209813;23;20068;-94
2022/01/14 08:02:53;;;;;;;32.20;13.75;;;;;;;;;;6228540;22;20043;-94
2022/01/14 08:05:21;;;;;;;31.15;15.10;;;;;;;;;;6209245;23;20025;-94
2022/01/14 08:07:51;;;;;;;33.15;12.98;;;;;;;;;;6210542;22;20089;-93
2022/01/14 08:10:19;;;;;;;33.97;13.00;;;;;;;;;;6209500;23;20019;-94
2022/01/14 08:13:00;;;;;;;29.90;13.98;;;;;;;;;;6209874;23;20017;-94
2022/01/14 08:15:29;;;;;;;33.60;14.65;;;;;;;;;;6209264;22;20009;-93
2022/01/14 08:18:06;;;;;;;33.80;14.43;;;;;;;;;;6208029;22;20451;-93
2022/01/14 08:20:43;;;;;;;27.75;14.38;;;;;;;;;;6202538;22;20020;-94
2022/01/14 08:23:11;;;;;;;38.25;14.70;;;;;;;;;;6200322;23;20021;-94
2022/01/14 08:25:46;;;;;;;33.72;14.80;;;;;;;;;;6209009;23;20029;-94
2022/01/14 08:28:20;;;;;;;34.80;14.25;;;;;;;;;;6208749;23;20032;-93
2022/01/14 08:31:01;;;;;;;36.22;14.75;;;;;;;;;;6213296;23;20445;-93
2022/01/14 08:34:04;;;;;;;29.88;14.10;;;;;;;;;;6209057;22;20031;-94
2022/01/14 08:36:32;;;;;;;33.10;14.13;;;;;;;;;;6209602;22;20049;-94
2022/01/14 08:39:03;;;;;;;26.05;14.85;;;;;;;;;;6208608;23;20029;-93
2022/01/14 08:41:45;;;;;;;50.28;18.17;;;;;;;;;;6205111;23;20025;-93
2022/01/14 08:44:14;;;;;;;24.83;13.75;;;;;;;;;;6208783;23;20032;-95
2022/01/14 08:46:51;;;;;;;30.33;13.88;;;;;;;;;;6213321;22;20048;-93
2022/01/14 08:49:20;;;;;;;33.33;13.23;;;;;;;;;;6211582;22;20021;-95
2022/01/14 08:51:49;;;;;;;39.22;12.98;;;;;;;;;;6211431;23;20012;-95
2022/01/14 09:20:48;;;;;;;35.85;12.82;;;;;;;;;;6175481;22;20022;-95
2022/01/14 09:23:28;;;;;;;30.25;11.52;;;;;;;;;;6177215;22;20015;-94
2022/01/14 09:25:55;;;;;;;28.17;11.70;;;;;;;;;;6170964;22;20028;-94
2022/01/14 09:28:28;;;;;;;32.50;11.77;;;;;;;;;;6166625;23;20025;-94
2022/01/14 09:31:04;;;;;;;28.88;11.80;;;;;;;;;;6144746;22;20029;-93
2022/01/14 09:33:37;;;;;;;23.95;10.48;;;;;;;;;;6168159;22;20022;-94
2022/01/14 09:36:06;;;;;;;31.30;11.18;;;;;;;;;;6166176;22;20036;-94
2022/01/14 09:38:42;;;;;;;31.42;11.02;;;;;;;;;;6174567;23;20029;-93
2022/01/14 09:41:49;;;;;;;28.58;10.68;;;;;;;;;;6175057;22;20020;-94
2022/01/14 09:44:30;;;;;;;25.65;10.45;;;;;;;;;;6149367;23;20029;-95
2022/01/14 09:46:59;;;;;;;31.70;10.68;;;;;;;;;;6174444;23;20088;-95
2022/01/14 09:49:39;;;;;;;26.77;10.02;;;;;;;;;;6172098;23;20036;-94
2022/01/14 09:52:13;;;;;;;25.67;10.63;;;;;;;;;;6174378;22;20087;-94
2022/01/14 09:54:45;;;;;;;31.17;11.77;;;;;;;;;;6176324;22;20033;-94
2022/01/14 09:57:33;;;;;;;20.75;8.50;;;;;;;;;;6176102;22;20032;-94
2022/01/14 10:00:05;;;;;;;22.05;8.65;;;;;;;;;;6152922;22;20029;-93
2022/01/14 10:02:40;;;;;;;21.60;9.10;;;;;;;;;;6150308;23;20029;-94
2022/01/14 10:05:31;;;;;;;22.98;9.93;;;;;;;;;;6151021;22;20017;-94
2022/01/14 10:08:35;;;;;;;25.13;10.25;;;;;;;;;;6153408;22;20088;-94
2022/01/14 10:11:18;;;;;;;26.40;10.07;;;;;;;;;;6170541;22;20014;-94
2022/01/14 10:17:49;;;;;;;33.28;8.93;;;;;;;;;;6174334;23;20032;-94
2022/01/14 10:20:17;;;;;;;29.42;9.38;;;;;;;;;;6204221;23;20026;-92
2022/01/14 10:23:12;;;;;;;27.00;9.45;;;;;;;;;;6204454;23;20077;-93
2022/01/14 10:25:55;;;;;;;28.13;9.35;;;;;;;;;;6206171;23;20012;-94
2022/01/14 10:28:56;;;;;;;26.95;8.68;;;;;;;;;;6205000;23;20029;-94
2022/01/14 10:31:30;;;;;;;18.98;9.30;;;;;;;;;;6204517;23;20021;-95
2022/01/14 10:34:20;;;;;;;27.25;9.57;;;;;;;;;;6204282;23;20025;-95
2022/01/14 10:36:48;;;;;;;27.15;9.85;;;;;;;;;;6203168;23;20021;-95
2022/01/14 10:39:19;;;;;;;25.45;10.07;;;;;;;;;;6204088;23;20053;-94
2022/01/14 10:41:56;;;;;;;26.92;11.00;;;;;;;;;;6203472;23;20036;-94
2022/01/14 10:44:38;;;;;;;36.55;12.10;;;;;;;;;;6204876;23;20021;-95
2022/01/14 10:47:12;;;;;;;32.60;11.60;;;;;;;;;;6202419;23;20082;-94
2022/01/14 10:49:56;;;;;;;31.92;11.48;;;;;;;;;;6199022;23;20049;-94
2022/01/14 10:52:33;;;;;;;30.30;11.18;;;;;;;;;;6202224;23;20033;-94
2022/01/14 10:55:37;;;;;;;33.35;10.88;;;;;;;;;;6194158;23;20024;-94
2022/01/14 10:58:38;;;;;;;;;;;;;;;;;;;;;
2022/01/14 11:01:57;;;;;;;26.73;10.63;;;;;;;;;;6144070;23;20128;-94
2022/01/14 11:05:12;;;;;;;32.63;11.32;;;;;;;;;;6089968;23;20033;-94
2022/01/14 11:07:58;;;;;;;34.00;11.82;;;;;;;;;;6121300;23;20017;-94
2022/01/14 11:10:39;;;;;;;37.88;12.18;;;;;;;;;;6121778;23;20021;-95
2022/01/14 11:13:42;;;;;;;33.75;13.20;;;;;;;;;;6119909;23;20100;-95
2022/01/14 11:16:26;;;;;;;34.30;12.63;;;;;;;;;;6142388;23;20037;-94
2022/01/14 11:19:18;;;;;;;35.33;12.55;;;;;;;;;;6202084;23;20041;-96
2022/01/14 11:25:04;;;;;;;33.35;11.38;;;;;;;;;;6207155;22;20016;-94
2022/01/14 11:27:43;;;;;;;28.55;12.23;;;;;;;;;;6204321;23;20035;-95
2022/01/14 11:30:49;;;;;;;37.10;12.40;;;;;;;;;;6204002;23;20020;-94
2022/01/14 11:33:19;;;;;;;29.60;10.80;;;;;;;;;;6210843;22;20073;-95
2022/01/14 11:36:18;;;;;;;29.35;11.90;;;;;;;;;;6204056;23;20171;-94
2022/01/14 11:39:17;;;;;;;28.23;11.95;;;;;;;;;;6199935;23;20025;-94
2022/01/14 11:45:43;;;;;;;27.73;11.40;;;;;;;;;;6206595;23;20008;-95
2022/01/14 11:48:39;;;;;;;39.22;14.05;;;;;;;;;;6205907;23;20013;-95
2022/01/14 11:51:21;;;;;;;28.48;12.13;;;;;;;;;;6186297;23;20009;-94
2022/01/14 11:53:53;;;;;;;31.98;12.13;;;;;;;;;;6205610;23;20036;-94
2022/01/14 11:56:32;;;;;;;30.63;12.43;;;;;;;;;;6205508;23;20013;-94
2022/01/14 11:59:22;;;;;;;33.47;11.15;;;;;;;;;;6199924;22;20260;-94
2022/01/14 12:01:56;;;;;;;31.90;12.00;;;;;;;;;;6213927;22;20026;-94
2022/01/14 12:05:08;;;;;;;25.17;13.02;;;;;;;;;;6214091;22;20058;-94
2022/01/14 12:08:07;;;;;;;32.47;12.57;;;;;;;;;;6211689;22;20016;-94
2022/01/14 12:11:24;;;;;;;29.98;11.35;;;;;;;;;;6198356;22;20020;-94
2022/01/14 12:13:54;;;;;;;27.85;11.63;;;;;;;;;;6210727;22;20012;-94
2022/01/14 12:27:19;;;;;;;28.52;11.82;;;;;;;;;;6162601;22;19919;-94
2022/01/14 12:30:14;;;;;;;25.58;9.75;;;;;;;;;;6187745;22;20056;-95
2022/01/14 12:32:47;;;;;;;26.05;10.50;;;;;;;;;;6215174;22;20004;-94
2022/01/14 12:35:35;;;;;;;33.10;10.20;;;;;;;;;;6238045;22;20036;-95
2022/01/14 12:38:16;;;;;;;;;;;;;;;;;;6209936;22;20412;-94
2022/01/14 12:41:00;;;;;;;19.10;9.90;;;;;;;;;;6215476;22;19923;-94
2022/01/14 12:43:45;;;;;;;31.42;10.52;;;;;;;;;;6216748;22;20012;-95
2022/01/14 12:46:40;;;;;;;28.65;9.63;;;;;;;;;;6215632;22;20017;-95
2022/01/14 12:57:36;;;;;;;25.85;9.85;;;;;;;;;;6209800;22;20016;-95
2022/01/14 13:00:25;;;;;;;28.17;10.20;;;;;;;;;;6186392;22;20011;-94
2022/01/14 13:03:10;;;;;;;23.60;9.90;;;;;;;;;;6219501;22;20046;-95
2022/01/14 13:05:59;;;;;;;26.42;9.65;;;;;;;;;;6238949;23;20024;-95
2022/01/14 13:08:33;;;;;;;22.30;9.27;;;;;;;;;;6214530;22;20012;-95
2022/01/14 13:11:07;;;;;;;31.20;12.80;;;;;;;;;;6211988;22;20009;-95
2022/01/14 13:13:59;;;;;;;35.67;15.45;;;;;;;;;;6231287;23;20044;-95
2022/01/14 13:16:41;;;;;;;26.33;10.50;;;;;;;;;;6211356;23;20032;-94
2022/01/14 13:19:27;;;;;;;30.15;13.30;;;;;;;;;;6214145;23;20012;-95
2022/01/14 13:25:46;;;;;;;21.88;9.95;;;;;;;;;;6236741;23;20023;-95
2022/01/14 13:28:25;;;;;;;25.33;10.10;;;;;;;;;;6214296;22;20013;-95
2022/01/14 13:34:57;;;;;;;26.63;11.30;;;;;;;;;;6238324;23;20018;-94
2022/01/14 13:37:39;;;;;;;29.13;10.85;;;;;;;;;;6219000;22;20019;-95
2022/01/14 13:40:33;;;;;;;25.00;11.18;;;;;;;;;;6245425;22;20052;-95
2022/01/14 13:43:20;;;;;;;25.85;11.35;;;;;;;;;;6245458;22;20012;-95
2022/01/14 13:46:18;;;;;;;22.27;10.98;;;;;;;;;;6267072;22;20012;-93
2022/01/14 13:48:52;;;;;;;34.00;11.65;;;;;;;;;;6241978;22;20032;-94
2022/01/14 13:51:35;;;;;;;24.33;11.40;;;;;;;;;;6243452;22;20020;-94
2022/01/14 13:54:15;;;;;;;24.55;10.70;;;;;;;;;;6244997;22;20008;-94
2022/01/14 13:57:18;;;;;;;22.90;10.82;;;;;;;;;;6244577;22;20069;-94
2022/01/14 14:00:11;;;;;;;20.48;10.18;;;;;;;;;;6242652;22;20154;-94
2022/01/14 14:02:52;;;;;;;28.45;11.23;;;;;;;;;;6244883;22;20004;-94
2022/01/14 14:05:43;;;;;;;24.63;10.75;;;;;;;;;;6245539;22;20014;-94
2022/01/14 14:17:38;;;;;;;20.65;9.70;;;;;;;;;;6266757;22;20015;-93
2022/01/14 14:20:22;;;;;;;17.42;9.98;;;;;;;;;;6242566;22;20022;-93
2022/01/14 14:26:45;;;;;;;18.27;8.90;;;;;;;;;;6265377;22;20023;-93
2022/01/14 14:29:24;;;;;;;27.50;9.70;;;;;;;;;;6239761;22;20021;-93
2022/01/14 14:32:31;;;;;;;20.73;8.18;;;;;;;;;;6241900;22;20063;-93
2022/01/14 15:38:32;;;;;;;21.58;9.48;;;;;;;;;;6237855;22;20080;-93
2022/01/14 15:44:47;;;;;;;21.95;10.82;;;;;;;;;;6191912;22;20008;-94
2022/01/14 15:47:55;;;;;;;26.35;9.57;;;;;;;;;;6330354;22;20071;-93
2022/01/14 17:09:55;;;;;;;19.65;11.85;;;;;;;;;;6282071;22;20045;-94
2022/01/14 17:48:09;;;;;;;18.75;9.98;;;;;;;;;;6244461;22;20032;-93
2022/01/14 18:33:36;;;;;;;25.98;11.02;;;;;;;;;;6270441;22;20004;-95
2022/01/14 19:02:43;;;;;;;41.10;19.02;;;;;;;;;;6267834;22;20023;-95
2022/01/14 20:17:20;;;;;;;20.27;4.93;;;;;;;;;;6301883;22;20011;-93
2022/01/14 20:20:14;;;;;;;;;;;;;;;;;;;;;
2022/01/14 20:22:50;;;;;;;14.27;4.50;;;;;;;;;;6274444;22;20059;-95
2022/01/14 20:25:31;;;;;;;23.00;5.47;;;;;;;;;;6250263;22;20016;-94
2022/01/14 20:28:05;;;;;;;20.58;5.00;;;;;;;;;;6250216;22;20012;-95
2022/01/14 20:42:04;;;;;;;25.70;5.57;;;;;;;;;;6250536;22;20008;-94
2022/01/14 21:11:53;;;;;;;15.23;5.57;;;;;;;;;;6285271;22;20011;-94
2022/01/14 22:11:00;;;;;;;23.00;7.80;;;;;;;;;;6210593;22;20015;-93
2022/01/14 22:13:50;;;;;;;23.92;6.85;;;;;;;;;;6206458;23;20028;-94
